createdAt,value
2018-06-11T00:00:06.911Z,930.28
2018-06-11T00:00:19.915Z,930.27
2018-06-11T00:00:32.414Z,930.31
2018-06-11T00:00:44.981Z,930.27
2018-06-11T00:00:57.942Z,930.32
2018-06-11T00:01:10.955Z,930.32
2018-06-11T00:01:23.076Z,930.3
2018-06-11T00:01:35.630Z,930.31
2018-06-11T00:01:48.654Z,930.3
2018-06-11T00:02:01.184Z,930.33
2018-06-11T00:02:14.197Z,930.31
2018-06-11T00:02:27.243Z,930.34
2018-06-11T00:02:39.778Z,930.36
2018-06-11T00:02:52.804Z,930.32
2018-06-11T00:03:04.412Z,930.33
2018-06-11T00:03:16.927Z,930.32
2018-06-11T00:03:29.915Z,930.35
2018-06-11T00:03:41.953Z,930.36
2018-06-11T00:03:54.875Z,930.35
2018-06-11T00:04:06.456Z,930.36
2018-06-11T00:04:19.414Z,930.31
2018-06-11T00:04:31.928Z,930.34
2018-06-11T00:04:44.457Z,930.32
2018-06-11T00:04:57.469Z,930.37
2018-06-11T00:05:09.945Z,930.35
2018-06-11T00:05:22.015Z,930.37
2018-06-11T00:05:34.036Z,930.37
2018-06-11T00:05:46.580Z,930.37
2018-06-11T00:05:58.697Z,930.35
2018-06-11T00:06:11.663Z,930.34
2018-06-11T00:06:24.771Z,930.34
2018-06-11T00:06:37.266Z,930.37
2018-06-11T00:06:49.302Z,930.37
2018-06-11T00:07:01.367Z,930.33
2018-06-11T00:07:13.874Z,930.31
2018-06-11T00:07:26.901Z,930.36
2018-06-11T00:07:39.453Z,930.34
2018-06-11T00:07:51.980Z,930.33
2018-06-11T00:08:04.995Z,930.38
2018-06-11T00:08:17.972Z,930.33
2018-06-11T00:08:30.044Z,930.33
2018-06-11T00:08:42.612Z,930.34
2018-06-11T00:08:55.189Z,930.33
2018-06-11T00:09:07.756Z,930.34
2018-06-11T00:09:20.786Z,930.34
2018-06-11T00:09:33.792Z,930.34
2018-06-11T00:09:46.796Z,930.33
2018-06-11T00:09:59.839Z,930.33
2018-06-11T00:10:12.419Z,930.34
2018-06-11T00:10:24.467Z,930.32
2018-06-11T00:10:36.541Z,930.36
2018-06-11T00:10:49.528Z,930.33
2018-06-11T00:11:02.078Z,930.33
2018-06-11T00:11:15.074Z,930.34
2018-06-11T00:11:28.695Z,930.32
2018-06-11T00:11:40.779Z,930.33
2018-06-11T00:11:53.760Z,930.32
2018-06-11T00:12:06.290Z,930.32
2018-06-11T00:12:18.842Z,930.31
2018-06-11T00:12:31.399Z,930.32
2018-06-11T00:12:43.984Z,930.35
2018-06-11T00:12:56.543Z,930.34
2018-06-11T00:13:09.548Z,930.33
2018-06-11T00:13:21.659Z,930.35
2018-06-11T00:13:34.181Z,930.38
2018-06-11T00:13:47.173Z,930.34
2018-06-11T00:14:00.177Z,930.34
2018-06-11T00:14:12.659Z,930.36
2018-06-11T00:14:25.174Z,930.34
2018-06-11T00:14:37.268Z,930.33
2018-06-11T00:14:50.295Z,930.36
2018-06-11T00:15:02.368Z,930.35
2018-06-11T00:15:15.358Z,930.38
2018-06-11T00:15:27.950Z,930.32
2018-06-11T00:15:40.486Z,930.35
2018-06-11T00:15:53.044Z,930.31
2018-06-11T00:16:05.656Z,930.34
2018-06-11T00:16:17.697Z,930.32
2018-06-11T00:16:30.732Z,930.34
2018-06-11T00:16:43.308Z,930.3
2018-06-11T00:16:55.858Z,930.29
2018-06-11T00:17:08.881Z,930.32
2018-06-11T00:17:20.937Z,930.34
2018-06-11T00:17:33.468Z,930.32
2018-06-11T00:17:46.511Z,930.36
2018-06-11T00:17:59.507Z,930.3
2018-06-11T00:18:11.581Z,930.35
2018-06-11T00:18:24.079Z,930.36
2018-06-11T00:18:36.128Z,930.34
2018-06-11T00:18:49.193Z,930.37
2018-06-11T00:19:01.710Z,930.32
2018-06-11T00:19:13.713Z,930.32
2018-06-11T00:19:25.830Z,930.33
2018-06-11T00:19:37.888Z,930.34
2018-06-11T00:19:50.407Z,930.36
2018-06-11T00:20:02.916Z,930.34
2018-06-11T00:20:15.031Z,930.32
2018-06-11T00:20:28.006Z,930.36
2018-06-11T00:20:40.073Z,930.38
2018-06-11T00:20:53.079Z,930.35
2018-06-11T00:21:06.018Z,930.37
2018-06-11T00:21:19.059Z,930.38
2018-06-11T00:21:32.125Z,930.37
2018-06-11T00:21:45.137Z,930.35
2018-06-11T00:21:57.703Z,930.37
2018-06-11T00:22:10.236Z,930.38
2018-06-11T00:22:22.718Z,930.37
2018-06-11T00:22:35.294Z,930.36
2018-06-11T00:22:47.833Z,930.39
2018-06-11T00:23:00.531Z,930.35
2018-06-11T00:23:13.131Z,930.4
2018-06-11T00:23:26.128Z,930.38
2018-06-11T00:23:38.660Z,930.36
2018-06-11T00:23:51.686Z,930.38
2018-06-11T00:24:04.645Z,930.35
2018-06-11T00:24:17.617Z,930.36
2018-06-11T00:24:30.637Z,930.38
2018-06-11T00:24:42.725Z,930.36
2018-06-11T00:24:55.297Z,930.38
2018-06-11T00:25:06.945Z,930.35
2018-06-11T00:25:19.989Z,930.38
2018-06-11T00:25:31.589Z,930.41
2018-06-11T00:25:44.147Z,930.38
2018-06-11T00:25:57.157Z,930.38
2018-06-11T00:26:09.695Z,930.39
2018-06-11T00:26:22.641Z,930.35
2018-06-11T00:26:36.741Z,930.37
2018-06-11T00:26:49.241Z,930.37
2018-06-11T00:27:02.271Z,930.37
2018-06-11T00:27:15.265Z,930.38
2018-06-11T00:27:27.856Z,930.4
2018-06-11T00:27:40.831Z,930.34
2018-06-11T00:27:53.890Z,930.34
2018-06-11T00:28:06.409Z,930.36
2018-06-11T00:28:18.904Z,930.34
2018-06-11T00:28:31.920Z,930.34
2018-06-11T00:28:44.449Z,930.33
2018-06-11T00:28:57.446Z,930.35
2018-06-11T00:29:10.434Z,930.36
2018-06-11T00:29:22.463Z,930.39
2018-06-11T00:29:35.007Z,930.35
2018-06-11T00:29:47.045Z,930.38
2018-06-11T00:29:59.591Z,930.38
2018-06-11T00:30:11.642Z,930.35
2018-06-11T00:30:23.687Z,930.38
2018-06-11T00:30:36.219Z,930.36
2018-06-11T00:30:49.257Z,930.35
2018-06-11T00:31:02.271Z,930.33
2018-06-11T00:31:14.834Z,930.3
2018-06-11T00:31:27.361Z,930.31
2018-06-11T00:31:38.968Z,930.35
2018-06-11T00:31:51.989Z,930.33
2018-06-11T00:32:04.070Z,930.35
2018-06-11T00:32:17.090Z,930.36
2018-06-11T00:32:30.052Z,930.36
2018-06-11T00:32:42.621Z,930.36
2018-06-11T00:32:55.121Z,930.36
2018-06-11T00:33:07.163Z,930.3
2018-06-11T00:33:19.251Z,930.38
2018-06-11T00:33:32.289Z,930.35
2018-06-11T00:33:45.305Z,930.37
2018-06-11T00:33:58.271Z,930.35
2018-06-11T00:34:10.357Z,930.35
2018-06-11T00:34:22.871Z,930.33
2018-06-11T00:34:35.354Z,930.36
2018-06-11T00:34:47.880Z,930.37
2018-06-11T00:35:00.387Z,930.35
2018-06-11T00:35:12.865Z,930.37
2018-06-11T00:35:25.360Z,930.3
2018-06-11T00:35:37.916Z,930.34
2018-06-11T00:35:50.432Z,930.32
2018-06-11T00:36:02.475Z,930.31
2018-06-11T00:36:13.600Z,930.34
2018-06-11T00:36:26.144Z,930.35
2018-06-11T00:36:39.182Z,930.35
2018-06-11T00:36:51.751Z,930.37
2018-06-11T00:37:04.757Z,930.34
2018-06-11T00:37:17.322Z,930.35
2018-06-11T00:37:29.894Z,930.31
2018-06-11T00:37:42.896Z,930.32
2018-06-11T00:37:55.876Z,930.32
2018-06-11T00:38:08.436Z,930.32
2018-06-11T00:38:21.401Z,930.33
2018-06-11T00:38:33.929Z,930.29
2018-06-11T00:38:45.533Z,930.32
2018-06-11T00:38:58.101Z,930.31
2018-06-11T00:39:10.180Z,930.32
2018-06-11T00:39:22.734Z,930.34
2018-06-11T00:39:34.813Z,930.33
2018-06-11T00:39:47.332Z,930.34
2018-06-11T00:40:00.292Z,930.35
2018-06-11T00:40:13.276Z,930.33
2018-06-11T00:40:25.790Z,930.31
2018-06-11T00:40:38.346Z,930.31
2018-06-11T00:40:51.388Z,930.28
2018-06-11T00:41:03.917Z,930.34
2018-06-11T00:41:16.451Z,930.32
2018-06-11T00:41:29.442Z,930.29
2018-06-11T00:41:42.966Z,930.29
2018-06-11T00:41:55.504Z,930.3
2018-06-11T00:42:08.527Z,930.28
2018-06-11T00:42:21.053Z,930.29
2018-06-11T00:42:33.599Z,930.3
2018-06-11T00:42:46.129Z,930.3
2018-06-11T00:42:58.642Z,930.29
2018-06-11T00:43:10.700Z,930.3
2018-06-11T00:43:22.289Z,930.28
2018-06-11T00:43:35.333Z,930.27
2018-06-11T00:43:48.368Z,930.27
2018-06-11T00:44:00.889Z,930.28
2018-06-11T00:44:13.892Z,930.3
2018-06-11T00:44:25.928Z,930.29
2018-06-11T00:44:38.467Z,930.27
2018-06-11T00:44:50.552Z,930.27
2018-06-11T00:45:03.622Z,930.26
2018-06-11T00:45:15.719Z,930.28
2018-06-11T00:45:28.218Z,930.29
2018-06-11T00:45:40.314Z,930.26
2018-06-11T00:45:53.354Z,930.26
2018-06-11T00:46:05.471Z,930.25
2018-06-11T00:46:18.448Z,930.25
2018-06-11T00:46:30.980Z,930.22
2018-06-11T00:46:43.074Z,930.28
2018-06-11T00:46:56.075Z,930.25
2018-06-11T00:47:08.653Z,930.26
2018-06-11T00:47:21.152Z,930.25
2018-06-11T00:47:33.714Z,930.27
2018-06-11T00:47:45.770Z,930.27
2018-06-11T00:47:58.282Z,930.23
2018-06-11T00:48:09.881Z,930.24
2018-06-11T00:48:22.897Z,930.25
2018-06-11T00:48:35.894Z,930.28
2018-06-11T00:48:48.871Z,930.27
2018-06-11T00:49:01.865Z,930.24
2018-06-11T00:49:14.852Z,930.25
2018-06-11T00:49:27.392Z,930.23
2018-06-11T00:49:40.374Z,930.28
2018-06-11T00:49:53.382Z,930.27
2018-06-11T00:50:05.464Z,930.26
2018-06-11T00:50:18.498Z,930.3
2018-06-11T00:50:31.019Z,930.25
2018-06-11T00:50:44.044Z,930.25
2018-06-11T00:50:56.591Z,930.25
2018-06-11T00:51:09.085Z,930.27
2018-06-11T00:51:22.116Z,930.25
2018-06-11T00:51:35.174Z,930.26
2018-06-11T00:51:48.164Z,930.27
2018-06-11T00:52:00.719Z,930.23
2018-06-11T00:52:13.330Z,930.22
2018-06-11T00:52:26.377Z,930.22
2018-06-11T00:52:39.411Z,930.25
2018-06-11T00:52:51.497Z,930.25
2018-06-11T00:53:03.970Z,930.22
2018-06-11T00:53:16.541Z,930.23
2018-06-11T00:53:29.544Z,930.21
2018-06-11T00:53:42.095Z,930.2
2018-06-11T00:53:55.132Z,930.21
2018-06-11T00:54:08.121Z,930.22
2018-06-11T00:54:20.633Z,930.18
2018-06-11T00:54:33.195Z,930.2
2018-06-11T00:54:45.678Z,930.22
2018-06-11T00:54:57.809Z,930.24
2018-06-11T00:55:10.819Z,930.22
2018-06-11T00:55:23.327Z,930.18
2018-06-11T00:55:35.881Z,930.19
2018-06-11T00:55:48.863Z,930.21
2018-06-11T00:56:01.849Z,930.23
2018-06-11T00:56:13.936Z,930.19
2018-06-11T00:56:26.439Z,930.16
2018-06-11T00:56:39.675Z,930.15
2018-06-11T00:56:52.653Z,930.21
2018-06-11T00:57:05.710Z,930.16
2018-06-11T00:57:18.254Z,930.17
2018-06-11T00:57:31.235Z,930.2
2018-06-11T00:57:44.261Z,930.19
2018-06-11T00:57:56.804Z,930.21
2018-06-11T00:58:08.878Z,930.19
2018-06-11T00:58:20.973Z,930.2
2018-06-11T00:58:33.962Z,930.18
2018-06-11T00:58:46.023Z,930.18
2018-06-11T00:58:58.995Z,930.21
2018-06-11T00:59:11.611Z,930.2
2018-06-11T00:59:24.639Z,930.23
2018-06-11T00:59:37.620Z,930.22
2018-06-11T00:59:50.606Z,930.21
2018-06-11T01:00:02.694Z,930.24
2018-06-11T01:00:15.219Z,930.22
2018-06-11T01:00:28.240Z,930.22
2018-06-11T01:00:40.747Z,930.21
2018-06-11T01:00:53.309Z,930.22
2018-06-11T01:01:05.828Z,930.22
2018-06-11T01:01:17.974Z,930.23
2018-06-11T01:01:30.968Z,930.23
2018-06-11T01:01:43.440Z,930.23
2018-06-11T01:01:56.439Z,930.24
2018-06-11T01:02:09.066Z,930.25
2018-06-11T01:02:21.645Z,930.22
2018-06-11T01:02:34.187Z,930.22
2018-06-11T01:02:46.659Z,930.21
2018-06-11T01:02:58.755Z,930.23
2018-06-11T01:03:10.767Z,930.24
2018-06-11T01:03:23.775Z,930.22
2018-06-11T01:03:36.766Z,930.22
2018-06-11T01:03:49.748Z,930.21
2018-06-11T01:04:02.311Z,930.25
2018-06-11T01:04:14.825Z,930.25
2018-06-11T01:04:27.838Z,930.24
2018-06-11T01:04:40.291Z,930.27
2018-06-11T01:04:52.825Z,930.27
2018-06-11T01:05:04.424Z,930.26
2018-06-11T01:05:16.996Z,930.26
2018-06-11T01:05:29.953Z,930.25
2018-06-11T01:05:42.027Z,930.26
2018-06-11T01:05:54.568Z,930.26
2018-06-11T01:06:07.602Z,930.25
2018-06-11T01:06:20.570Z,930.27
2018-06-11T01:06:33.090Z,930.29
2018-06-11T01:06:45.754Z,930.26
2018-06-11T01:06:58.268Z,930.24
2018-06-11T01:07:10.814Z,930.25
2018-06-11T01:07:23.821Z,930.29
2018-06-11T01:07:36.808Z,930.28
2018-06-11T01:07:49.783Z,930.25
2018-06-11T01:08:02.273Z,930.24
2018-06-11T01:08:14.313Z,930.25
2018-06-11T01:08:27.310Z,930.27
2018-06-11T01:08:39.850Z,930.27
2018-06-11T01:08:52.819Z,930.29
2018-06-11T01:09:04.902Z,930.26
2018-06-11T01:09:17.463Z,930.3
2018-06-11T01:09:30.064Z,930.27
2018-06-11T01:09:42.652Z,930.29
2018-06-11T01:09:55.592Z,930.26
2018-06-11T01:10:07.648Z,930.28
2018-06-11T01:10:20.211Z,930.28
2018-06-11T01:10:32.831Z,930.29
2018-06-11T01:10:45.831Z,930.28
2018-06-11T01:10:58.838Z,930.29
2018-06-11T01:11:11.898Z,930.28
2018-06-11T01:11:24.001Z,930.27
2018-06-11T01:11:36.093Z,930.3
2018-06-11T01:11:49.109Z,930.31
2018-06-11T01:12:01.242Z,930.27
2018-06-11T01:12:13.769Z,930.33
2018-06-11T01:12:26.366Z,930.29
2018-06-11T01:12:38.945Z,930.3
2018-06-11T01:12:51.966Z,930.31
2018-06-11T01:13:04.538Z,930.31
2018-06-11T01:13:17.082Z,930.26
2018-06-11T01:13:29.651Z,930.27
2018-06-11T01:13:41.772Z,930.3
2018-06-11T01:13:54.740Z,930.28
2018-06-11T01:14:06.785Z,930.26
2018-06-11T01:14:19.334Z,930.3
2018-06-11T01:14:31.910Z,930.28
2018-06-11T01:14:44.475Z,930.27
2018-06-11T01:14:57.459Z,930.3
2018-06-11T01:15:09.047Z,930.28
2018-06-11T01:15:21.570Z,930.29
2018-06-11T01:15:34.549Z,930.28
2018-06-11T01:15:47.572Z,930.28
2018-06-11T01:16:00.573Z,930.23
2018-06-11T01:16:13.601Z,930.29
2018-06-11T01:16:25.649Z,930.26
2018-06-11T01:16:38.670Z,930.24
2018-06-11T01:16:51.237Z,930.29
2018-06-11T01:17:04.279Z,930.23
2018-06-11T01:17:17.318Z,930.29
2018-06-11T01:17:30.334Z,930.26
2018-06-11T01:17:43.310Z,930.24
2018-06-11T01:17:55.896Z,930.23
2018-06-11T01:18:07.992Z,930.28
2018-06-11T01:18:20.973Z,930.25
2018-06-11T01:18:33.986Z,930.27
2018-06-11T01:18:46.546Z,930.25
2018-06-11T01:18:59.524Z,930.26
2018-06-11T01:19:12.050Z,930.24
2018-06-11T01:19:24.541Z,930.27
2018-06-11T01:19:37.131Z,930.27
2018-06-11T01:19:50.084Z,930.24
2018-06-11T01:20:02.123Z,930.24
2018-06-11T01:20:15.163Z,930.23
2018-06-11T01:20:28.247Z,930.21
2018-06-11T01:20:40.349Z,930.26
2018-06-11T01:20:53.380Z,930.25
2018-06-11T01:21:05.967Z,930.27
2018-06-11T01:21:18.967Z,930.23
2018-06-11T01:21:31.546Z,930.28
2018-06-11T01:21:44.707Z,930.25
2018-06-11T01:21:57.703Z,930.25
2018-06-11T01:22:10.265Z,930.27
2018-06-11T01:22:23.285Z,930.25
2018-06-11T01:22:35.771Z,930.26
2018-06-11T01:22:48.731Z,930.26
2018-06-11T01:23:01.768Z,930.26
2018-06-11T01:23:13.797Z,930.26
2018-06-11T01:23:26.833Z,930.29
2018-06-11T01:23:38.963Z,930.27
2018-06-11T01:23:51.923Z,930.26
2018-06-11T01:24:04.454Z,930.27
2018-06-11T01:24:16.961Z,930.26
2018-06-11T01:24:29.058Z,930.28
2018-06-11T01:24:41.597Z,930.29
2018-06-11T01:24:54.638Z,930.26
2018-06-11T01:25:07.701Z,930.25
2018-06-11T01:25:20.223Z,930.24
2018-06-11T01:25:33.198Z,930.24
2018-06-11T01:25:45.701Z,930.24
2018-06-11T01:25:58.199Z,930.24
2018-06-11T01:26:10.752Z,930.23
2018-06-11T01:26:23.274Z,930.21
2018-06-11T01:26:35.839Z,930.24
2018-06-11T01:26:49.040Z,930.22
2018-06-11T01:27:02.058Z,930.24
2018-06-11T01:27:14.591Z,930.23
2018-06-11T01:27:27.583Z,930.23
2018-06-11T01:27:40.083Z,930.22
2018-06-11T01:27:53.080Z,930.25
2018-06-11T01:28:05.185Z,930.21
2018-06-11T01:28:17.673Z,930.21
2018-06-11T01:28:30.243Z,930.23
2018-06-11T01:28:43.226Z,930.23
2018-06-11T01:28:55.728Z,930.24
2018-06-11T01:29:07.839Z,930.21
2018-06-11T01:29:20.367Z,930.23
2018-06-11T01:29:32.436Z,930.25
2018-06-11T01:29:44.478Z,930.22
2018-06-11T01:29:57.018Z,930.2
2018-06-11T01:30:09.062Z,930.23
2018-06-11T01:30:21.169Z,930.24
2018-06-11T01:30:33.669Z,930.28
2018-06-11T01:30:46.669Z,930.25
2018-06-11T01:30:59.200Z,930.26
2018-06-11T01:31:11.702Z,930.26
2018-06-11T01:31:24.234Z,930.24
2018-06-11T01:31:37.253Z,930.24
2018-06-11T01:31:49.332Z,930.28
2018-06-11T01:32:02.271Z,930.23
2018-06-11T01:32:14.828Z,930.27
2018-06-11T01:32:27.791Z,930.26
2018-06-11T01:32:40.316Z,930.26
2018-06-11T01:32:52.397Z,930.27
2018-06-11T01:33:05.368Z,930.27
2018-06-11T01:33:18.339Z,930.3
2018-06-11T01:33:31.398Z,930.26
2018-06-11T01:33:43.944Z,930.25
2018-06-11T01:33:56.053Z,930.25
2018-06-11T01:34:08.659Z,930.25
2018-06-11T01:34:21.165Z,930.28
2018-06-11T01:34:33.706Z,930.25
2018-06-11T01:34:46.661Z,930.27
2018-06-11T01:34:59.207Z,930.28
2018-06-11T01:35:11.249Z,930.23
2018-06-11T01:35:24.194Z,930.27
2018-06-11T01:35:37.158Z,930.24
2018-06-11T01:35:49.253Z,930.24
2018-06-11T01:36:02.267Z,930.25
2018-06-11T01:36:14.807Z,930.25
2018-06-11T01:36:27.869Z,930.29
2018-06-11T01:36:40.423Z,930.25
2018-06-11T01:36:53.519Z,930.26
2018-06-11T01:37:05.097Z,930.27
2018-06-11T01:37:18.109Z,930.23
2018-06-11T01:37:30.678Z,930.23
2018-06-11T01:37:43.642Z,930.24
2018-06-11T01:37:55.783Z,930.25
2018-06-11T01:38:08.348Z,930.24
2018-06-11T01:38:20.928Z,930.21
2018-06-11T01:38:33.414Z,930.24
2018-06-11T01:38:46.384Z,930.25
2018-06-11T01:38:58.499Z,930.25
2018-06-11T01:39:11.544Z,930.27
2018-06-11T01:39:24.077Z,930.24
2018-06-11T01:39:37.078Z,930.24
2018-06-11T01:39:49.604Z,930.26
2018-06-11T01:40:01.700Z,930.21
2018-06-11T01:40:13.321Z,930.26
2018-06-11T01:40:25.381Z,930.24
2018-06-11T01:40:38.346Z,930.25
2018-06-11T01:40:50.843Z,930.26
2018-06-11T01:41:02.888Z,930.24
2018-06-11T01:41:15.447Z,930.26
2018-06-11T01:41:28.517Z,930.22
2018-06-11T01:41:41.058Z,930.2
2018-06-11T01:41:54.776Z,930.27
2018-06-11T01:42:07.252Z,930.24
2018-06-11T01:42:19.814Z,930.24
2018-06-11T01:42:32.380Z,930.24
2018-06-11T01:42:45.364Z,930.22
2018-06-11T01:42:57.910Z,930.24
2018-06-11T01:43:10.445Z,930.19
2018-06-11T01:43:23.453Z,930.22
2018-06-11T01:43:36.448Z,930.2
2018-06-11T01:43:49.420Z,930.22
2018-06-11T01:44:02.436Z,930.2
2018-06-11T01:44:15.035Z,930.24
2018-06-11T01:44:28.010Z,930.24
2018-06-11T01:44:40.994Z,930.24
2018-06-11T01:44:53.970Z,930.16
2018-06-11T01:45:06.473Z,930.22
2018-06-11T01:45:19.053Z,930.21
2018-06-11T01:45:32.113Z,930.19
2018-06-11T01:45:44.604Z,930.15
2018-06-11T01:45:57.108Z,930.15
2018-06-11T01:46:09.659Z,930.15
2018-06-11T01:46:22.642Z,930.17
2018-06-11T01:46:34.755Z,930.16
2018-06-11T01:46:47.746Z,930.16
2018-06-11T01:46:59.819Z,930.17
2018-06-11T01:47:12.316Z,930.16
2018-06-11T01:47:24.835Z,930.13
2018-06-11T01:47:37.837Z,930.15
2018-06-11T01:47:50.425Z,930.17
2018-06-11T01:48:02.948Z,930.15
2018-06-11T01:48:15.940Z,930.13
2018-06-11T01:48:28.915Z,930.13
2018-06-11T01:48:41.891Z,930.14
2018-06-11T01:48:54.409Z,930.12
2018-06-11T01:49:07.395Z,930.12
2018-06-11T01:49:20.337Z,930.12
2018-06-11T01:49:33.374Z,930.09
2018-06-11T01:49:45.458Z,930.1
2018-06-11T01:49:57.963Z,930.11
2018-06-11T01:50:10.915Z,930.13
2018-06-11T01:50:22.994Z,930.13
2018-06-11T01:50:35.528Z,930.1
2018-06-11T01:50:48.582Z,930.14
2018-06-11T01:51:01.155Z,930.15
2018-06-11T01:51:13.203Z,930.14
2018-06-11T01:51:26.216Z,930.13
2018-06-11T01:51:39.227Z,930.11
2018-06-11T01:51:51.799Z,930.1
2018-06-11T01:52:04.867Z,930.11
2018-06-11T01:52:17.446Z,930.12
2018-06-11T01:52:29.093Z,930.13
2018-06-11T01:52:41.190Z,930.13
2018-06-11T01:52:54.195Z,930.16
2018-06-11T01:53:07.228Z,930.12
2018-06-11T01:53:18.858Z,930.1
2018-06-11T01:53:31.887Z,930.13
2018-06-11T01:53:44.423Z,930.15
2018-06-11T01:53:56.956Z,930.13
2018-06-11T01:54:09.941Z,930.14
2018-06-11T01:54:22.480Z,930.13
2018-06-11T01:54:35.445Z,930.14
2018-06-11T01:54:48.031Z,930.12
2018-06-11T01:55:00.575Z,930.09
2018-06-11T01:55:12.650Z,930.11
2018-06-11T01:55:25.601Z,930.1
2018-06-11T01:55:38.120Z,930.1
2018-06-11T01:55:51.153Z,930.1
2018-06-11T01:56:03.667Z,930.1
2018-06-11T01:56:16.595Z,930.06
2018-06-11T01:56:29.687Z,930.11
2018-06-11T01:56:42.681Z,930.13
2018-06-11T01:56:55.182Z,930.11
2018-06-11T01:57:07.240Z,930.15
2018-06-11T01:57:20.247Z,930.12
2018-06-11T01:57:32.312Z,930.14
2018-06-11T01:57:44.361Z,930.13
2018-06-11T01:57:56.835Z,930.12
2018-06-11T01:58:09.813Z,930.14
2018-06-11T01:58:22.777Z,930.16
2018-06-11T01:58:35.311Z,930.14
2018-06-11T01:58:48.353Z,930.15
2018-06-11T01:59:00.890Z,930.16
2018-06-11T01:59:13.849Z,930.16
2018-06-11T01:59:25.891Z,930.15
2018-06-11T01:59:38.846Z,930.21
2018-06-11T01:59:51.837Z,930.16
2018-06-11T02:00:04.362Z,930.17
2018-06-11T02:00:16.445Z,930.18
2018-06-11T02:00:29.021Z,930.13
2018-06-11T02:00:42.012Z,930.17
2018-06-11T02:00:55.016Z,930.13
2018-06-11T02:01:08.074Z,930.17
2018-06-11T02:01:21.082Z,930.16
2018-06-11T02:01:33.587Z,930.17
2018-06-11T02:01:46.641Z,930.16
2018-06-11T02:01:58.911Z,930.17
2018-06-11T02:02:10.535Z,930.16
2018-06-11T02:02:23.027Z,930.15
2018-06-11T02:02:36.027Z,930.17
2018-06-11T02:02:49.051Z,930.16
2018-06-11T02:03:01.590Z,930.15
2018-06-11T02:03:14.568Z,930.16
2018-06-11T02:03:27.109Z,930.14
2018-06-11T02:03:40.164Z,930.15
2018-06-11T02:03:52.719Z,930.17
2018-06-11T02:04:05.230Z,930.18
2018-06-11T02:04:17.747Z,930.16
2018-06-11T02:04:30.809Z,930.18
2018-06-11T02:04:43.805Z,930.2
2018-06-11T02:04:55.854Z,930.17
2018-06-11T02:05:08.397Z,930.15
2018-06-11T02:05:20.950Z,930.2
2018-06-11T02:05:33.476Z,930.21
2018-06-11T02:05:46.010Z,930.2
2018-06-11T02:05:58.961Z,930.19
2018-06-11T02:06:11.074Z,930.24
2018-06-11T02:06:24.084Z,930.21
2018-06-11T02:06:36.621Z,930.23
2018-06-11T02:06:49.148Z,930.23
2018-06-11T02:07:02.306Z,930.23
2018-06-11T02:07:15.348Z,930.24
2018-06-11T02:07:28.389Z,930.25
2018-06-11T02:07:40.921Z,930.23
2018-06-11T02:07:53.860Z,930.24
2018-06-11T02:08:06.881Z,930.22
2018-06-11T02:08:19.835Z,930.25
2018-06-11T02:08:32.866Z,930.27
2018-06-11T02:08:45.432Z,930.25
2018-06-11T02:08:58.438Z,930.24
2018-06-11T02:09:10.988Z,930.29
2018-06-11T02:09:23.986Z,930.22
2018-06-11T02:09:36.931Z,930.25
2018-06-11T02:09:49.478Z,930.27
2018-06-11T02:10:01.564Z,930.26
2018-06-11T02:10:13.655Z,930.26
2018-06-11T02:10:26.650Z,930.29
2018-06-11T02:10:39.683Z,930.3
2018-06-11T02:10:52.740Z,930.26
2018-06-11T02:11:05.260Z,930.3
2018-06-11T02:11:17.819Z,930.27
2018-06-11T02:11:30.741Z,930.28
2018-06-11T02:11:43.278Z,930.24
2018-06-11T02:11:55.826Z,930.26
2018-06-11T02:12:09.024Z,930.25
2018-06-11T02:12:22.092Z,930.26
2018-06-11T02:12:35.166Z,930.25
2018-06-11T02:12:47.681Z,930.24
2018-06-11T02:13:00.630Z,930.23
2018-06-11T02:13:12.699Z,930.2
2018-06-11T02:13:25.240Z,930.21
2018-06-11T02:13:37.767Z,930.22
2018-06-11T02:13:50.751Z,930.18
2018-06-11T02:14:02.834Z,930.22
2018-06-11T02:14:15.906Z,930.18
2018-06-11T02:14:28.438Z,930.18
2018-06-11T02:14:40.954Z,930.18
2018-06-11T02:14:53.507Z,930.2
2018-06-11T02:15:06.500Z,930.22
2018-06-11T02:15:19.088Z,930.17
2018-06-11T02:15:32.064Z,930.14
2018-06-11T02:15:44.142Z,930.18
2018-06-11T02:15:56.759Z,930.16
2018-06-11T02:16:08.357Z,930.15
2018-06-11T02:16:21.353Z,930.15
2018-06-11T02:16:33.970Z,930.15
2018-06-11T02:16:45.582Z,930.12
2018-06-11T02:16:58.117Z,930.1
2018-06-11T02:17:11.474Z,930.12
2018-06-11T02:17:23.055Z,930.07
2018-06-11T02:17:36.011Z,930.11
2018-06-11T02:17:48.959Z,930.07
2018-06-11T02:18:01.435Z,930.09
2018-06-11T02:18:13.048Z,930.09
2018-06-11T02:18:25.604Z,930.07
2018-06-11T02:18:38.143Z,930.1
2018-06-11T02:18:50.669Z,930.07
2018-06-11T02:19:03.712Z,930.09
2018-06-11T02:19:16.687Z,930.07
2018-06-11T02:19:29.660Z,930.05
2018-06-11T02:19:42.229Z,930.07
2018-06-11T02:19:55.265Z,930.06
2018-06-11T02:20:07.815Z,930.07
2018-06-11T02:20:20.833Z,930.05
2018-06-11T02:20:33.860Z,930.03
2018-06-11T02:20:46.317Z,930.05
2018-06-11T02:20:58.798Z,930.03
2018-06-11T02:21:10.414Z,930.03
2018-06-11T02:21:23.397Z,930.05
2018-06-11T02:21:36.409Z,930.04
2018-06-11T02:21:48.904Z,930.05
2018-06-11T02:22:02.107Z,930.02
2018-06-11T02:22:14.651Z,930.04
2018-06-11T02:22:27.676Z,930.05
2018-06-11T02:22:40.700Z,930.02
2018-06-11T02:22:53.739Z,930.05
2018-06-11T02:23:06.721Z,930.02
2018-06-11T02:23:19.717Z,930.01
2018-06-11T02:23:32.271Z,930.05
2018-06-11T02:23:44.839Z,930.02
2018-06-11T02:23:57.358Z,930.02
2018-06-11T02:24:09.839Z,930
2018-06-11T02:24:21.927Z,929.99
2018-06-11T02:24:34.544Z,930.03
2018-06-11T02:24:46.632Z,930.01
2018-06-11T02:24:59.233Z,929.99
2018-06-11T02:25:12.194Z,930
2018-06-11T02:25:24.729Z,930
2018-06-11T02:25:36.752Z,929.98
2018-06-11T02:25:49.705Z,929.99
2018-06-11T02:26:02.242Z,929.98
2018-06-11T02:26:14.297Z,929.98
2018-06-11T02:26:27.357Z,930.02
2018-06-11T02:26:39.951Z,929.98
2018-06-11T02:26:52.478Z,929.99
2018-06-11T02:27:04.978Z,930.01
2018-06-11T02:27:17.471Z,930
2018-06-11T02:27:30.474Z,930.01
2018-06-11T02:27:43.450Z,929.97
2018-06-11T02:27:56.378Z,930
2018-06-11T02:28:08.928Z,930
2018-06-11T02:28:21.556Z,930.01
2018-06-11T02:28:34.101Z,930.05
2018-06-11T02:28:47.165Z,930.05
2018-06-11T02:28:59.703Z,930.04
2018-06-11T02:29:12.737Z,930.04
2018-06-11T02:29:25.778Z,930.04
2018-06-11T02:29:38.772Z,930.05
2018-06-11T02:29:51.802Z,930.05
2018-06-11T02:30:04.374Z,930.08
2018-06-11T02:30:17.390Z,930.09
2018-06-11T02:30:30.395Z,930.08
2018-06-11T02:30:42.959Z,930.09
2018-06-11T02:30:55.941Z,930.07
2018-06-11T02:31:08.905Z,930.08
2018-06-11T02:31:21.398Z,930.07
2018-06-11T02:31:34.080Z,930.12
2018-06-11T02:31:47.122Z,930.14
2018-06-11T02:31:59.688Z,930.13
2018-06-11T02:32:12.675Z,930.08
2018-06-11T02:32:24.741Z,930.09
2018-06-11T02:32:37.777Z,930.11
2018-06-11T02:32:50.326Z,930.13
2018-06-11T02:33:02.894Z,930.15
2018-06-11T02:33:15.344Z,930.11
2018-06-11T02:33:26.964Z,930.09
2018-06-11T02:33:40.009Z,930.12
2018-06-11T02:33:53.078Z,930.11
2018-06-11T02:34:06.116Z,930.12
2018-06-11T02:34:18.670Z,930.12
2018-06-11T02:34:30.795Z,930.14
2018-06-11T02:34:43.790Z,930.16
2018-06-11T02:34:56.296Z,930.15
2018-06-11T02:35:08.873Z,930.14
2018-06-11T02:35:21.456Z,930.13
2018-06-11T02:35:34.512Z,930.11
2018-06-11T02:35:47.518Z,930.14
2018-06-11T02:36:00.519Z,930.11
2018-06-11T02:36:12.536Z,930.13
2018-06-11T02:36:24.554Z,930.1
2018-06-11T02:36:37.565Z,930.12
2018-06-11T02:36:50.573Z,930.13
2018-06-11T02:37:02.619Z,930.1
2018-06-11T02:37:14.756Z,930.13
2018-06-11T02:37:27.343Z,930.08
2018-06-11T02:37:39.892Z,930.13
2018-06-11T02:37:52.900Z,930.08
2018-06-11T02:38:05.452Z,930.09